sensor_id;sensor_type;location;lat;lon;timestamp;pressure;altitude;pressure_sealevel;temperature;humidity
49072;BME280;52656;52.610;10.236;2023-05-07T00:00:12;101613.38;;;8.70;83.74
49072;BME280;52656;52.610;10.236;2023-05-07T00:02:40;101619.72;;;8.59;83.53
49072;BME280;52656;52.610;10.236;2023-05-07T00:05:06;101608.66;;;8.37;84.03
49072;BME280;52656;52.610;10.236;2023-05-07T00:07:32;101616.31;;;8.53;83.93
49072;BME280;52656;52.610;10.236;2023-05-07T00:09:57;101608.13;;;8.66;82.95
49072;BME280;52656;52.610;10.236;2023-05-07T00:12:22;101613.34;;;8.71;82.48
49072;BME280;52656;52.610;10.236;2023-05-07T00:14:48;101603.97;;;8.55;83.90
49072;BME280;52656;52.610;10.236;2023-05-07T00:17:13;101615.94;;;8.74;82.56
49072;BME280;52656;52.610;10.236;2023-05-07T00:19:38;101610.06;;;8.58;83.50
49072;BME280;52656;52.610;10.236;2023-05-07T00:22:03;101612.91;;;8.46;83.42
49072;BME280;52656;52.610;10.236;2023-05-07T00:24:29;101610.19;;;8.51;84.36
49072;BME280;52656;52.610;10.236;2023-05-07T00:26:54;101616.06;;;8.66;83.39
49072;BME280;52656;52.610;10.236;2023-05-07T00:29:19;101610.81;;;8.65;83.79
49072;BME280;52656;52.610;10.236;2023-05-07T00:31:45;101608.88;;;8.75;83.00
49072;BME280;52656;52.610;10.236;2023-05-07T00:34:10;101614.22;;;8.72;83.41
49072;BME280;52656;52.610;10.236;2023-05-07T00:36:35;101606.38;;;8.69;84.03
49072;BME280;52656;52.610;10.236;2023-05-07T00:39:01;101621.63;;;8.51;84.60
49072;BME280;52656;52.610;10.236;2023-05-07T00:41:28;101619.22;;;8.87;82.98
49072;BME280;52656;52.610;10.236;2023-05-07T00:43:54;101613.81;;;8.93;82.92
49072;BME280;52656;52.610;10.236;2023-05-07T00:46:20;101616.09;;;8.65;83.58
49072;BME280;52656;52.610;10.236;2023-05-07T00:48:46;101615.22;;;8.64;84.77
49072;BME280;52656;52.610;10.236;2023-05-07T00:51:12;101620.84;;;8.46;85.93
49072;BME280;52656;52.610;10.236;2023-05-07T00:53:37;101618.69;;;8.68;84.89
49072;BME280;52656;52.610;10.236;2023-05-07T00:56:03;101605.41;;;8.73;84.15
49072;BME280;52656;52.610;10.236;2023-05-07T00:58:29;101614.25;;;8.70;84.37
49072;BME280;52656;52.610;10.236;2023-05-07T01:00:55;101619.44;;;8.75;84.14
49072;BME280;52656;52.610;10.236;2023-05-07T01:03:20;101612.47;;;8.72;83.58
49072;BME280;52656;52.610;10.236;2023-05-07T01:05:48;101614.38;;;8.64;84.05
49072;BME280;52656;52.610;10.236;2023-05-07T01:08:15;101617.75;;;8.71;83.16
49072;BME280;52656;52.610;10.236;2023-05-07T01:10:41;101607.03;;;8.80;83.01
49072;BME280;52656;52.610;10.236;2023-05-07T01:13:09;101611.47;;;8.78;82.74
49072;BME280;52656;52.610;10.236;2023-05-07T01:15:35;101616.72;;;8.79;82.84
49072;BME280;52656;52.610;10.236;2023-05-07T01:18:01;101608.75;;;8.82;82.52
49072;BME280;52656;52.610;10.236;2023-05-07T01:20:27;101605.97;;;8.88;82.16
49072;BME280;52656;52.610;10.236;2023-05-07T01:22:53;101614.19;;;8.73;83.27
49072;BME280;52656;52.610;10.236;2023-05-07T01:25:18;101614.25;;;8.70;83.38
49072;BME280;52656;52.610;10.236;2023-05-07T01:27:43;101617.66;;;8.77;83.02
49072;BME280;52656;52.610;10.236;2023-05-07T01:30:09;101621.53;;;8.56;83.49
49072;BME280;52656;52.610;10.236;2023-05-07T01:32:42;101613.06;;;8.35;84.93
49072;BME280;52656;52.610;10.236;2023-05-07T01:35:12;101613.81;;;8.44;84.08
49072;BME280;52656;52.610;10.236;2023-05-07T01:37:39;101614.06;;;8.79;82.92
49072;BME280;52656;52.610;10.236;2023-05-07T01:40:06;101629.50;;;8.54;83.81
49072;BME280;52656;52.610;10.236;2023-05-07T01:42:32;101624.16;;;8.59;83.47
49072;BME280;52656;52.610;10.236;2023-05-07T01:44:57;101624.94;;;8.62;83.00
49072;BME280;52656;52.610;10.236;2023-05-07T01:47:23;101619.00;;;8.51;83.27
49072;BME280;52656;52.610;10.236;2023-05-07T01:49:50;101622.34;;;8.61;83.22
49072;BME280;52656;52.610;10.236;2023-05-07T01:52:15;101621.81;;;8.40;83.77
49072;BME280;52656;52.610;10.236;2023-05-07T01:54:40;101622.63;;;8.46;84.01
49072;BME280;52656;52.610;10.236;2023-05-07T01:57:06;101627.06;;;8.42;84.35
49072;BME280;52656;52.610;10.236;2023-05-07T01:59:31;101619.97;;;8.46;84.39
49072;BME280;52656;52.610;10.236;2023-05-07T02:01:56;101617.19;;;8.53;83.95
49072;BME280;52656;52.610;10.236;2023-05-07T02:04:21;101614.09;;;8.28;85.24
49072;BME280;52656;52.610;10.236;2023-05-07T02:06:47;101613.81;;;8.44;84.80
49072;BME280;52656;52.610;10.236;2023-05-07T02:09:13;101614.06;;;8.31;85.41
49072;BME280;52656;52.610;10.236;2023-05-07T02:11:40;101622.41;;;8.56;83.84
49072;BME280;52656;52.610;10.236;2023-05-07T02:14:05;101623.25;;;8.60;83.93
49072;BME280;52656;52.610;10.236;2023-05-07T02:16:30;101622.69;;;8.39;85.63
49072;BME280;52656;52.610;10.236;2023-05-07T02:18:56;101617.06;;;8.61;84.00
49072;BME280;52656;52.610;10.236;2023-05-07T02:21:21;101621.59;;;8.54;84.40
49072;BME280;52656;52.610;10.236;2023-05-07T02:23:47;101624.34;;;8.47;84.96
49072;BME280;52656;52.610;10.236;2023-05-07T02:26:12;101623.81;;;8.23;85.94
49072;BME280;52656;52.610;10.236;2023-05-07T02:28:37;101630.94;;;8.16;86.54
49072;BME280;52656;52.610;10.236;2023-05-07T02:31:03;101629.53;;;8.51;84.17
49072;BME280;52656;52.610;10.236;2023-05-07T02:33:29;101625.41;;;8.35;85.08
49072;BME280;52656;52.610;10.236;2023-05-07T02:35:54;101634.88;;;8.50;83.95
49072;BME280;52656;52.610;10.236;2023-05-07T02:38:20;101627.94;;;8.43;84.37
49072;BME280;52656;52.610;10.236;2023-05-07T02:40:45;101627.19;;;8.34;84.27
49072;BME280;52656;52.610;10.236;2023-05-07T02:43:10;101629.63;;;8.47;83.43
49072;BME280;52656;52.610;10.236;2023-05-07T02:45:36;101633.63;;;8.15;84.84
49072;BME280;52656;52.610;10.236;2023-05-07T02:48:03;101632.22;;;8.48;83.79
49072;BME280;52656;52.610;10.236;2023-05-07T02:50:28;101627.91;;;8.44;83.20
49072;BME280;52656;52.610;10.236;2023-05-07T02:52:54;101629.25;;;8.68;81.76
49072;BME280;52656;52.610;10.236;2023-05-07T02:55:19;101635.59;;;8.58;81.85
49072;BME280;52656;52.610;10.236;2023-05-07T02:57:44;101639.13;;;8.58;81.79
49072;BME280;52656;52.610;10.236;2023-05-07T03:00:14;101644.94;;;8.25;83.09
49072;BME280;52656;52.610;10.236;2023-05-07T03:02:41;101640.38;;;8.34;81.71
49072;BME280;52656;52.610;10.236;2023-05-07T03:05:06;101631.19;;;8.57;81.17
49072;BME280;52656;52.610;10.236;2023-05-07T03:07:32;101636.47;;;8.57;80.72
49072;BME280;52656;52.610;10.236;2023-05-07T03:09:57;101631.47;;;8.41;81.48
49072;BME280;52656;52.610;10.236;2023-05-07T03:12:22;101632.22;;;8.48;81.12
49072;BME280;52656;52.610;10.236;2023-05-07T03:14:47;101631.44;;;8.45;81.42
49072;BME280;52656;52.610;10.236;2023-05-07T03:17:13;101637.31;;;8.60;80.40
49072;BME280;52656;52.610;10.236;2023-05-07T03:19:38;101636.03;;;8.32;81.54
49072;BME280;52656;52.610;10.236;2023-05-07T03:22:03;101626.25;;;8.38;81.30
49072;BME280;52656;52.610;10.236;2023-05-07T03:24:29;101638.72;;;8.29;81.63
49072;BME280;52656;52.610;10.236;2023-05-07T03:26:54;101621.81;;;8.40;80.68
49072;BME280;52656;52.610;10.236;2023-05-07T03:29:19;101626.53;;;8.17;81.98
49072;BME280;52656;52.610;10.236;2023-05-07T03:31:45;101622.91;;;8.27;81.92
49072;BME280;52656;52.610;10.236;2023-05-07T03:34:10;101621.00;;;8.37;81.34
49072;BME280;52656;52.610;10.236;2023-05-07T03:36:35;101624.50;;;8.37;80.94
49072;BME280;52656;52.610;10.236;2023-05-07T03:39:01;101614.00;;;8.33;81.69
49072;BME280;52656;52.610;10.236;2023-05-07T03:41:26;101627.34;;;8.24;81.49
49072;BME280;52656;52.610;10.236;2023-05-07T03:43:51;101623.56;;;8.40;80.79
49072;BME280;52656;52.610;10.236;2023-05-07T03:46:17;101629.03;;;8.29;81.74
49072;BME280;52656;52.610;10.236;2023-05-07T03:48:42;101624.50;;;8.37;81.31
49072;BME280;52656;52.610;10.236;2023-05-07T03:51:07;101621.72;;;8.47;81.06
49072;BME280;52656;52.610;10.236;2023-05-07T03:53:33;101612.88;;;8.49;80.84
49072;BME280;52656;52.610;10.236;2023-05-07T03:55:58;101619.19;;;8.39;81.67
49072;BME280;52656;52.610;10.236;2023-05-07T03:58:23;101633.31;;;8.36;81.73
49072;BME280;52656;52.610;10.236;2023-05-07T04:00:48;101629.50;;;8.53;80.44
49072;BME280;52656;52.610;10.236;2023-05-07T04:03:14;101629.47;;;8.56;80.47
49072;BME280;52656;52.610;10.236;2023-05-07T04:05:40;101625.72;;;8.69;80.13
49072;BME280;52656;52.610;10.236;2023-05-07T04:08:05;101625.03;;;8.58;80.44
49072;BME280;52656;52.610;10.236;2023-05-07T04:10:31;101630.56;;;8.43;81.07
49072;BME280;52656;52.610;10.236;2023-05-07T04:12:56;101626.75;;;8.60;80.04
49072;BME280;52656;52.610;10.236;2023-05-07T04:15:23;101633.59;;;8.16;82.47
49072;BME280;52656;52.610;10.236;2023-05-07T04:17:48;101642.03;;;8.40;81.36
49072;BME280;52656;52.610;10.236;2023-05-07T04:20:15;101638.38;;;8.49;81.27
49072;BME280;52656;52.610;10.236;2023-05-07T04:22:41;101641.88;;;8.51;80.71
49072;BME280;52656;52.610;10.236;2023-05-07T04:25:08;101651.81;;;8.35;81.79
49072;BME280;52656;52.610;10.236;2023-05-07T04:27:34;101638.31;;;8.53;80.95
49072;BME280;52656;52.610;10.236;2023-05-07T04:30:00;101645.44;;;8.50;80.82
49072;BME280;52656;52.610;10.236;2023-05-07T04:32:26;101640.16;;;8.50;80.74
49072;BME280;52656;52.610;10.236;2023-05-07T04:34:51;101648.69;;;8.64;80.49
49072;BME280;52656;52.610;10.236;2023-05-07T04:37:16;101648.38;;;8.30;82.28
49072;BME280;52656;52.610;10.236;2023-05-07T04:39:42;101647.91;;;8.57;80.23
49072;BME280;52656;52.610;10.236;2023-05-07T04:42:07;101653.78;;;8.75;79.58
49072;BME280;52656;52.610;10.236;2023-05-07T04:44:34;101655.84;;;8.59;79.85
49072;BME280;52656;52.610;10.236;2023-05-07T04:46:59;101676.34;;;8.41;80.47
49072;BME280;52656;52.610;10.236;2023-05-07T04:49:25;101655.03;;;8.54;79.00
49072;BME280;52656;52.610;10.236;2023-05-07T04:51:50;101668.09;;;8.63;78.36
49072;BME280;52656;52.610;10.236;2023-05-07T04:54:16;101669.78;;;8.65;78.00
49072;BME280;52656;52.610;10.236;2023-05-07T04:56:41;101672.91;;;8.90;76.62
49072;BME280;52656;52.610;10.236;2023-05-07T04:59:06;101679.88;;;8.95;76.83
49072;BME280;52656;52.610;10.236;2023-05-07T05:01:31;101680.78;;;8.92;76.53
49072;BME280;52656;52.610;10.236;2023-05-07T05:03:57;101687.63;;;9.02;75.88
49072;BME280;52656;52.610;10.236;2023-05-07T05:06:22;101680.63;;;9.01;76.13
49072;BME280;52656;52.610;10.236;2023-05-07T05:08:48;101693.25;;;8.84;76.06
49072;BME280;52656;52.610;10.236;2023-05-07T05:11:13;101689.81;;;8.79;76.82
49072;BME280;52656;52.610;10.236;2023-05-07T05:13:39;101690.47;;;8.91;75.98
49072;BME280;52656;52.610;10.236;2023-05-07T05:16:04;101685.19;;;8.91;75.52
49072;BME280;52656;52.610;10.236;2023-05-07T05:18:30;101695.47;;;9.07;75.19
49072;BME280;52656;52.610;10.236;2023-05-07T05:20:55;101690.44;;;8.95;75.31
49072;BME280;52656;52.610;10.236;2023-05-07T05:23:20;101695.84;;;8.87;75.70
49072;BME280;52656;52.610;10.236;2023-05-07T05:25:45;101693.50;;;8.70;75.97
49072;BME280;52656;52.610;10.236;2023-05-07T05:28:11;101689.69;;;8.85;75.75
49072;BME280;52656;52.610;10.236;2023-05-07T05:30:36;101686.19;;;8.84;76.15
49072;BME280;52656;52.610;10.236;2023-05-07T05:33:01;101693.88;;;8.98;75.37
49072;BME280;52656;52.610;10.236;2023-05-07T05:35:27;101696.09;;;8.72;76.18
49072;BME280;52656;52.610;10.236;2023-05-07T05:37:52;101701.28;;;8.76;75.99
49072;BME280;52656;52.610;10.236;2023-05-07T05:40:17;101694.34;;;8.71;77.15
49072;BME280;52656;52.610;10.236;2023-05-07T05:42:43;101698.41;;;8.91;75.79
49072;BME280;52656;52.610;10.236;2023-05-07T05:45:09;101703.66;;;8.95;75.78
49072;BME280;52656;52.610;10.236;2023-05-07T05:47:34;101706.47;;;8.84;76.57
49072;BME280;52656;52.610;10.236;2023-05-07T05:49:59;101717.19;;;8.75;76.22
49072;BME280;52656;52.610;10.236;2023-05-07T05:52:25;101712.25;;;9.06;75.21
49072;BME280;52656;52.610;10.236;2023-05-07T05:54:50;101706.09;;;9.05;75.37
49072;BME280;52656;52.610;10.236;2023-05-07T05:57:15;101712.03;;;9.16;74.89
49072;BME280;52656;52.610;10.236;2023-05-07T05:59:41;101713.81;;;9.16;75.00
49072;BME280;52656;52.610;10.236;2023-05-07T06:02:06;101719.09;;;9.16;74.85
49072;BME280;52656;52.610;10.236;2023-05-07T06:04:31;101710.25;;;9.18;74.56
49072;BME280;52656;52.610;10.236;2023-05-07T06:06:57;101726.44;;;9.00;75.16
49072;BME280;52656;52.610;10.236;2023-05-07T06:09:22;101720.91;;;9.12;75.28
49072;BME280;52656;52.610;10.236;2023-05-07T06:11:47;101718.97;;;9.24;74.72
49072;BME280;52656;52.610;10.236;2023-05-07T06:14:13;101714.94;;;9.03;75.87
49072;BME280;52656;52.610;10.236;2023-05-07T06:16:38;101713.72;;;9.21;74.90
49072;BME280;52656;52.610;10.236;2023-05-07T06:19:03;101720.56;;;9.32;74.85
49072;BME280;52656;52.610;10.236;2023-05-07T06:21:29;101713.41;;;9.37;74.60
49072;BME280;52656;52.610;10.236;2023-05-07T06:23:55;101719.63;;;9.36;74.36
49072;BME280;52656;52.610;10.236;2023-05-07T06:26:20;101714.38;;;9.33;74.21
49072;BME280;52656;52.610;10.236;2023-05-07T06:28:46;101707.28;;;9.35;74.23
49072;BME280;52656;52.610;10.236;2023-05-07T06:31:15;101704.47;;;9.45;73.60
49072;BME280;52656;52.610;10.236;2023-05-07T06:33:41;101706.03;;;9.55;73.96
49072;BME280;52656;52.610;10.236;2023-05-07T06:36:07;101716.94;;;9.38;74.62
49072;BME280;52656;52.610;10.236;2023-05-07T06:38:32;101717.06;;;9.30;74.93
49072;BME280;52656;52.610;10.236;2023-05-07T06:40:57;101717.72;;;9.43;74.84
49072;BME280;52656;52.610;10.236;2023-05-07T06:43:22;101716.00;;;9.40;74.62
49072;BME280;52656;52.610;10.236;2023-05-07T06:45:48;101711.59;;;9.39;75.44
49072;BME280;52656;52.610;10.236;2023-05-07T06:48:13;101711.38;;;9.52;74.91
49072;BME280;52656;52.610;10.236;2023-05-07T06:50:38;101710.78;;;9.82;72.94
49072;BME280;52656;52.610;10.236;2023-05-07T06:53:04;101714.06;;;9.49;73.64
49072;BME280;52656;52.610;10.236;2023-05-07T06:55:29;101715.06;;;9.45;74.29
49072;BME280;52656;52.610;10.236;2023-05-07T06:57:54;101718.47;;;9.48;74.88
49072;BME280;52656;52.610;10.236;2023-05-07T07:00:20;101723.00;;;9.45;73.95
49072;BME280;52656;52.610;10.236;2023-05-07T07:02:45;101731.47;;;9.60;73.53
49072;BME280;52656;52.610;10.236;2023-05-07T07:05:10;101718.56;;;9.88;72.69
49072;BME280;52656;52.610;10.236;2023-05-07T07:07:36;101721.56;;;9.70;73.95
49072;BME280;52656;52.610;10.236;2023-05-07T07:10:01;101731.63;;;9.53;74.22
49072;BME280;52656;52.610;10.236;2023-05-07T07:12:29;101725.88;;;9.76;73.39
49072;BME280;52656;52.610;10.236;2023-05-07T07:14:54;101724.91;;;9.80;73.40
49072;BME280;52656;52.610;10.236;2023-05-07T07:17:20;101727.91;;;9.63;73.70
49072;BME280;52656;52.610;10.236;2023-05-07T07:19:46;101732.16;;;9.70;73.02
49072;BME280;52656;52.610;10.236;2023-05-07T07:22:11;101722.09;;;9.89;72.43
49072;BME280;52656;52.610;10.236;2023-05-07T07:24:36;101716.69;;;9.95;72.42
49072;BME280;52656;52.610;10.236;2023-05-07T07:27:02;101724.63;;;9.95;71.90
49072;BME280;52656;52.610;10.236;2023-05-07T07:29:27;101726.41;;;9.93;71.93
49072;BME280;52656;52.610;10.236;2023-05-07T07:31:52;101724.38;;;10.06;71.42
49072;BME280;52656;52.610;10.236;2023-05-07T07:34:18;101727.91;;;10.06;71.01
49072;BME280;52656;52.610;10.236;2023-05-07T07:36:43;101750.03;;;10.02;70.00
49072;BME280;52656;52.610;10.236;2023-05-07T07:39:08;101753.09;;;10.24;69.65
49072;BME280;52656;52.610;10.236;2023-05-07T07:41:33;101736.56;;;10.52;68.48
49072;BME280;52656;52.610;10.236;2023-05-07T07:43:59;101744.13;;;10.30;69.30
49072;BME280;52656;52.610;10.236;2023-05-07T07:46:24;101732.38;;;10.43;69.07
49072;BME280;52656;52.610;10.236;2023-05-07T07:48:51;101738.63;;;10.39;68.05
49072;BME280;52656;52.610;10.236;2023-05-07T07:51:16;101744.13;;;10.31;68.98
49072;BME280;52656;52.610;10.236;2023-05-07T07:53:42;101750.69;;;10.13;69.59
49072;BME280;52656;52.610;10.236;2023-05-07T07:56:07;101751.16;;;10.32;68.49
49072;BME280;52656;52.610;10.236;2023-05-07T07:58:32;101751.63;;;10.11;68.52
49072;BME280;52656;52.610;10.236;2023-05-07T08:00:58;101749.88;;;10.10;69.26
49072;BME280;52656;52.610;10.236;2023-05-07T08:03:23;101744.78;;;10.39;68.79
49072;BME280;52656;52.610;10.236;2023-05-07T08:05:48;101751.13;;;10.71;67.03
49072;BME280;52656;52.610;10.236;2023-05-07T08:08:16;101755.34;;;10.42;67.75
49072;BME280;52656;52.610;10.236;2023-05-07T08:10:41;101766.78;;;10.44;68.02
49072;BME280;52656;52.610;10.236;2023-05-07T08:13:06;101751.97;;;10.72;66.46
49072;BME280;52656;52.610;10.236;2023-05-07T08:15:32;101748.69;;;10.98;65.95
49072;BME280;52656;52.610;10.236;2023-05-07T08:17:58;101746.47;;;11.15;65.04
49072;BME280;52656;52.610;10.236;2023-05-07T08:20:25;101755.78;;;10.97;65.52
49072;BME280;52656;52.610;10.236;2023-05-07T08:22:51;101750.59;;;10.92;65.16
49072;BME280;52656;52.610;10.236;2023-05-07T08:25:18;101752.25;;;10.97;65.77
49072;BME280;52656;52.610;10.236;2023-05-07T08:27:43;101757.56;;;10.97;64.71
49072;BME280;52656;52.610;10.236;2023-05-07T08:30:10;101760.41;;;10.89;66.40
49072;BME280;52656;52.610;10.236;2023-05-07T08:32:35;101748.47;;;11.07;65.28
49072;BME280;52656;52.610;10.236;2023-05-07T08:35:01;101742.78;;;11.20;64.99
49072;BME280;52656;52.610;10.236;2023-05-07T08:37:26;101761.19;;;11.28;64.54
49072;BME280;52656;52.610;10.236;2023-05-07T08:39:51;101754.38;;;11.18;65.07
49072;BME280;52656;52.610;10.236;2023-05-07T08:42:17;101760.44;;;11.21;64.70
49072;BME280;52656;52.610;10.236;2023-05-07T08:44:43;101760.88;;;11.40;64.39
49072;BME280;52656;52.610;10.236;2023-05-07T08:47:10;101758.47;;;10.95;66.10
49072;BME280;52656;52.610;10.236;2023-05-07T08:49:36;101763.56;;;11.39;64.42
49072;BME280;52656;52.610;10.236;2023-05-07T08:52:01;101761.00;;;11.00;65.29
49072;BME280;52656;52.610;10.236;2023-05-07T08:54:28;101756.50;;;11.70;63.72
49072;BME280;52656;52.610;10.236;2023-05-07T08:56:54;101757.81;;;11.87;62.94
49072;BME280;52656;52.610;10.236;2023-05-07T08:59:19;101761.53;;;11.49;64.41
49072;BME280;52656;52.610;10.236;2023-05-07T09:01:45;101766.16;;;12.04;62.48
49072;BME280;52656;52.610;10.236;2023-05-07T09:04:10;101762.38;;;11.82;62.57
49072;BME280;52656;52.610;10.236;2023-05-07T09:06:37;101758.47;;;11.93;62.77
49072;BME280;52656;52.610;10.236;2023-05-07T09:09:06;101770.34;;;12.11;61.75
49072;BME280;52656;52.610;10.236;2023-05-07T09:11:32;101761.91;;;12.56;59.73
49072;BME280;52656;52.610;10.236;2023-05-07T09:13:58;101761.47;;;12.70;59.19
49072;BME280;52656;52.610;10.236;2023-05-07T09:16:26;101764.31;;;12.92;58.26
49072;BME280;52656;52.610;10.236;2023-05-07T09:18:53;101753.44;;;12.98;58.00
49072;BME280;52656;52.610;10.236;2023-05-07T09:21:19;101764.09;;;12.42;59.17
49072;BME280;52656;52.610;10.236;2023-05-07T09:23:45;101765.41;;;12.58;58.66
49072;BME280;52656;52.610;10.236;2023-05-07T09:26:10;101766.75;;;12.42;59.47
49072;BME280;52656;52.610;10.236;2023-05-07T09:28:40;101770.72;;;12.58;59.29
49072;BME280;52656;52.610;10.236;2023-05-07T09:31:06;101765.78;;;12.74;58.89
49072;BME280;52656;52.610;10.236;2023-05-07T09:33:32;101779.16;;;12.13;60.56
49072;BME280;52656;52.610;10.236;2023-05-07T09:35:57;101795.75;;;11.90;60.65
49072;BME280;52656;52.610;10.236;2023-05-07T09:38:22;101764.31;;;12.06;60.68
49072;BME280;52656;52.610;10.236;2023-05-07T09:41:01;101768.28;;;12.21;60.35
49072;BME280;52656;52.610;10.236;2023-05-07T09:43:31;101770.78;;;12.27;60.00
49072;BME280;52656;52.610;10.236;2023-05-07T09:45:58;101767.28;;;12.55;58.95
49072;BME280;52656;52.610;10.236;2023-05-07T09:48:25;101775.19;;;12.56;58.78
49072;BME280;52656;52.610;10.236;2023-05-07T09:50:55;101775.53;;;12.74;58.04
49072;BME280;52656;52.610;10.236;2023-05-07T09:53:23;101772.38;;;12.89;57.53
49072;BME280;52656;52.610;10.236;2023-05-07T09:55:51;101781.66;;;12.76;57.87
49072;BME280;52656;52.610;10.236;2023-05-07T09:58:18;101778.44;;;13.45;55.49
49072;BME280;52656;52.610;10.236;2023-05-07T10:00:44;101776.31;;;13.55;54.80
49072;BME280;52656;52.610;10.236;2023-05-07T10:03:11;101772.88;;;13.52;54.08
49072;BME280;52656;52.610;10.236;2023-05-07T10:05:38;101762.81;;;13.85;53.92
49072;BME280;52656;52.610;10.236;2023-05-07T10:08:04;101776.38;;;14.02;53.18
49072;BME280;52656;52.610;10.236;2023-05-07T10:10:32;101763.22;;;14.44;52.42
49072;BME280;52656;52.610;10.236;2023-05-07T10:12:58;101767.94;;;14.14;52.95
49072;BME280;52656;52.610;10.236;2023-05-07T10:15:23;101774.06;;;14.16;52.56
49072;BME280;52656;52.610;10.236;2023-05-07T10:17:51;101766.72;;;14.23;52.10
49072;BME280;52656;52.610;10.236;2023-05-07T10:20:18;101772.16;;;13.96;52.98
49072;BME280;52656;52.610;10.236;2023-05-07T10:22:44;101766.72;;;14.23;52.65
49072;BME280;52656;52.610;10.236;2023-05-07T10:25:20;101773.59;;;14.29;52.27
49072;BME280;52656;52.610;10.236;2023-05-07T10:27:47;101766.75;;;14.67;51.11
49072;BME280;52656;52.610;10.236;2023-05-07T10:30:30;101775.03;;;14.37;51.74
49072;BME280;52656;52.610;10.236;2023-05-07T10:33:03;101762.88;;;14.52;51.62
49072;BME280;52656;52.610;10.236;2023-05-07T10:35:37;101763.41;;;14.40;51.48
49072;BME280;52656;52.610;10.236;2023-05-07T10:38:03;101776.06;;;14.33;52.01
49072;BME280;52656;52.610;10.236;2023-05-07T10:40:30;101776.06;;;14.79;51.03
49072;BME280;52656;52.610;10.236;2023-05-07T10:42:57;101765.13;;;14.85;50.54
49072;BME280;52656;52.610;10.236;2023-05-07T10:45:24;101757.38;;;14.57;51.15
49072;BME280;52656;52.610;10.236;2023-05-07T10:50:30;101762.13;;;14.70;51.54
49072;BME280;52656;52.610;10.236;2023-05-07T10:55:39;101784.47;;;14.46;52.17
49072;BME280;52656;52.610;10.236;2023-05-07T11:00:50;101780.75;;;13.80;54.26
49072;BME280;52656;52.610;10.236;2023-05-07T11:03:16;101791.25;;;13.59;54.74
49072;BME280;52656;52.610;10.236;2023-05-07T11:05:42;101792.44;;;13.76;54.29
49072;BME280;52656;52.610;10.236;2023-05-07T11:08:08;101779.19;;;13.74;54.42
49072;BME280;52656;52.610;10.236;2023-05-07T11:10:54;101791.25;;;13.08;56.43
49072;BME280;52656;52.610;10.236;2023-05-07T11:13:48;101774.91;;;13.70;54.87
49072;BME280;52656;52.610;10.236;2023-05-07T11:16:21;101787.06;;;13.52;54.91
49072;BME280;52656;52.610;10.236;2023-05-07T11:21:32;101797.38;;;13.61;54.78
49072;BME280;52656;52.610;10.236;2023-05-07T11:23:58;101796.72;;;13.30;56.14
49072;BME280;52656;52.610;10.236;2023-05-07T11:26:24;101803.56;;;13.62;55.22
49072;BME280;52656;52.610;10.236;2023-05-07T11:28:51;101795.25;;;13.72;55.16
49072;BME280;52656;52.610;10.236;2023-05-07T11:31:21;101796.34;;;13.67;54.53
49072;BME280;52656;52.610;10.236;2023-05-07T11:33:48;101791.28;;;13.58;54.89
49072;BME280;52656;52.610;10.236;2023-05-07T11:36:13;101794.09;;;14.03;53.62
49072;BME280;52656;52.610;10.236;2023-05-07T11:38:38;101793.25;;;14.48;52.72
49072;BME280;52656;52.610;10.236;2023-05-07T11:41:04;101783.56;;;14.23;52.74
49072;BME280;52656;52.610;10.236;2023-05-07T11:43:31;101784.34;;;14.04;52.92
49072;BME280;52656;52.610;10.236;2023-05-07T11:46:08;101795.72;;;13.84;53.82
49072;BME280;52656;52.610;10.236;2023-05-07T11:48:34;101787.38;;;14.40;53.09
49072;BME280;52656;52.610;10.236;2023-05-07T11:51:09;101792.91;;;13.62;54.96
49072;BME280;52656;52.610;10.236;2023-05-07T11:53:40;101793.19;;;14.04;54.05
49072;BME280;52656;52.610;10.236;2023-05-07T11:56:07;101794.22;;;13.77;55.02
49072;BME280;52656;52.610;10.236;2023-05-07T11:58:32;101795.38;;;14.16;54.14
49072;BME280;52656;52.610;10.236;2023-05-07T12:00:57;101790.13;;;13.66;55.11
49072;BME280;52656;52.610;10.236;2023-05-07T12:03:23;101792.84;;;13.65;55.24
49072;BME280;52656;52.610;10.236;2023-05-07T12:05:48;101798.72;;;13.75;55.12
49072;BME280;52656;52.610;10.236;2023-05-07T12:08:17;101795.34;;;13.94;54.74
49072;BME280;52656;52.610;10.236;2023-05-07T12:10:44;101798.09;;;14.38;52.84
49072;BME280;52656;52.610;10.236;2023-05-07T12:13:20;101790.91;;;14.40;53.00
49072;BME280;52656;52.610;10.236;2023-05-07T12:15:46;101787.81;;;14.51;52.26
49072;BME280;52656;52.610;10.236;2023-05-07T12:18:12;101781.00;;;14.66;51.61
49072;BME280;52656;52.610;10.236;2023-05-07T12:20:39;101787.25;;;15.31;49.81
49072;BME280;52656;52.610;10.236;2023-05-07T12:23:05;101786.06;;;14.28;52.71
49072;BME280;52656;52.610;10.236;2023-05-07T12:25:31;101784.75;;;14.38;51.68
49072;BME280;52656;52.610;10.236;2023-05-07T12:27:56;101800.34;;;14.26;52.39
49072;BME280;52656;52.610;10.236;2023-05-07T12:30:24;101785.91;;;14.55;51.73
49072;BME280;52656;52.610;10.236;2023-05-07T12:32:52;101795.50;;;14.37;52.19
49072;BME280;52656;52.610;10.236;2023-05-07T12:35:29;101792.59;;;14.65;51.43
49072;BME280;52656;52.610;10.236;2023-05-07T12:37:58;101799.03;;;14.37;52.05
49072;BME280;52656;52.610;10.236;2023-05-07T12:40:35;101792.97;;;14.56;51.74
49072;BME280;52656;52.610;10.236;2023-05-07T12:43:00;101791.59;;;14.91;50.83
49072;BME280;52656;52.610;10.236;2023-05-07T12:45:26;101786.63;;;14.82;51.11
49072;BME280;52656;52.610;10.236;2023-05-07T12:47:51;101793.88;;;14.33;51.47
49072;BME280;52656;52.610;10.236;2023-05-07T12:50:16;101781.84;;;14.66;50.38